• Join FlightAware (Why Join?)
  • Login
  • US Flag 
02:20AM EDT


 

Airport Tracker/Info


-or-


 

Live Flight TrackerFlight Track Log ✈ AWE3874 ✈ 23-Jun-2013 ✈ KRIC - KPHL

Flight Track Log - Related Links

Times and Time Zones

All times are in EDT time to prevent confusion due to time zone crossing. See the AWE3874 flight status page for this flight to view local times or setup timezone preferences in your user account.

Time Position Orientation Groundspeed Altitude Reporting Facility
EDT Latitude Longitude Course Direction KTS MPH feet Rate Location/Type
09:36AM 37.4731 -77.2744 38° Northeast 178 205 1,800  Level Washington Center
09:37AM 37.4825 -77.2039 80° East 185 213 4,000 2,040 Climbing Washington Center
09:38AM 37.6977 -77.1023 38° Northeast  Level FlightAware Approximate
09:38AM 37.5231 -77.1264 57° Northeast 205 236 5,900  Level Washington Center
09:39AM 37.7661 -77.0339 38° Northeast  Level FlightAware Approximate
09:39AM 37.5681 -77.0381 57° Northeast 251 289 7,800  Level Washington Center
09:40AM 37.8345 -76.9655 38° Northeast  Level FlightAware Approximate
09:40AM 37.6108 -76.9444 60° Northeast 290 334 9,700  Level Washington Center
09:41AM 37.9029 -76.8971 38° Northeast  Level FlightAware Approximate
09:41AM 37.6681 -76.8564 51° Northeast 311 358 11,500  Level Washington Center
09:42AM 37.7500 -76.7919 32° Northeast 326 375 13,700 1,740 Climbing Washington Center
09:43AM 37.8342 -76.7250 32° Northeast 337 388 15,000 600 Climbing Washington Center
09:44AM 37.9225 -76.6528 33° Northeast 357 411 15,000  Level Washington Center
09:45AM 38.0106 -76.5828 32° Northeast 369 425 15,000  Level Washington Center
09:46AM 38.0989 -76.5100 33° Northeast 369 425 15,000  Level Washington Center
09:47AM 38.1847 -76.4422 32° Northeast 369 425 15,000  Level Washington Center
09:48AM 38.2708 -76.3719 33° Northeast 369 425 15,000  Level Washington Center
09:49AM 38.3461 -76.3117 32° Northeast 363 418 15,000  Level Washington Center
09:50AM 38.4342 -76.2411 32° Northeast 363 418 15,000 -240 Level Washington Center
09:51AM 38.5181 -76.1703 33° Northeast 368 423 14,600 -900 Descending Washington Center
09:52AM 38.6036 -76.1017 32° Northeast 368 423 13,200 -840 Descending Washington Center
09:53AM 38.6811 -76.0358 34° Northeast 348 400 13,000 -120 Descending Washington Center
09:54AM 38.7564 -75.9669 36° Northeast 338 389 13,000 -660 Level Washington Center
09:55AM 38.8317 -75.8956 36° Northeast 333 383 11,800 -1,320 Descending Washington Center
09:56AM 38.9047 -75.8264 36° Northeast 333 383 10,400 -900 Descending Washington Center
09:57AM 38.9778 -75.7572 36° Northeast 333 383 10,000 -240 Descending Washington Center
09:58AM 39.0531 -75.6853 37° Northeast 333 383 10,000  Level Washington Center
09:59AM 39.1406 -75.6667 North 316 364 10,000  Level Washington Center
10:01AM 39.3500 -75.6000 14° North 313 360 10,000 -480 Level Philadelphia TRACON
10:02AM 39.4000 -75.5333 46° Northeast 292 336 8,500 -1,740 Descending Philadelphia TRACON
10:03AM 39.4500 -75.4333 57° Northeast 295 339 6,600 -1,260 Descending Philadelphia TRACON
10:04AM 39.5000 -75.3667 46° Northeast 267 307 6,000 -480 Descending Philadelphia TRACON
10:05AM 39.5333 -75.3000 57° Northeast 211 243 5,700 -780 Descending Philadelphia TRACON
10:06AM 39.5667 -75.2333 57° Northeast 212 244 4,500 -1,200 Descending Philadelphia TRACON
10:07AM 39.6167 -75.1833 38° Northeast 205 236 3,300 -780 Descending Philadelphia TRACON
10:08AM 39.6667 -75.1667 14° North 192 221 3,000 -540 Descending Philadelphia TRACON
10:09AM 39.7167 -75.1500 14° North 172 198 2,300 -720 Descending Philadelphia TRACON